sensor_id;sensor_type;location;lat;lon;timestamp;temperature;humidity
8643;DHT22;4359;49.358;11.256;2023-10-31T00:02:14;11.50;99.90
8643;DHT22;4359;49.358;11.256;2023-10-31T00:04:39;11.50;99.90
8643;DHT22;4359;49.358;11.256;2023-10-31T00:07:05;11.50;99.90
8643;DHT22;4359;49.358;11.256;2023-10-31T00:09:31;11.60;99.90
8643;DHT22;4359;49.358;11.256;2023-10-31T00:11:57;11.50;99.90
8643;DHT22;4359;49.358;11.256;2023-10-31T00:14:23;11.50;99.90
8643;DHT22;4359;49.358;11.256;2023-10-31T00:16:49;11.60;99.90
8643;DHT22;4359;49.358;11.256;2023-10-31T00:19:14;11.50;99.90
8643;DHT22;4359;49.358;11.256;2023-10-31T00:21:40;11.50;99.90
8643;DHT22;4359;49.358;11.256;2023-10-31T00:24:06;11.50;99.90
8643;DHT22;4359;49.358;11.256;2023-10-31T00:26:32;11.60;99.90
8643;DHT22;4359;49.358;11.256;2023-10-31T00:28:57;11.60;99.90
8643;DHT22;4359;49.358;11.256;2023-10-31T00:31:23;11.60;99.90
8643;DHT22;4359;49.358;11.256;2023-10-31T00:33:48;11.60;99.90
8643;DHT22;4359;49.358;11.256;2023-10-31T00:36:14;11.60;99.90
8643;DHT22;4359;49.358;11.256;2023-10-31T00:38:40;11.60;99.90
8643;DHT22;4359;49.358;11.256;2023-10-31T00:41:05;11.70;99.90
8643;DHT22;4359;49.358;11.256;2023-10-31T00:43:31;11.60;99.90
8643;DHT22;4359;49.358;11.256;2023-10-31T00:45:57;11.60;99.90
8643;DHT22;4359;49.358;11.256;2023-10-31T00:48:22;11.60;99.90
8643;DHT22;4359;49.358;11.256;2023-10-31T00:50:48;11.60;99.90
8643;DHT22;4359;49.358;11.256;2023-10-31T00:53:14;11.60;99.90
8643;DHT22;4359;49.358;11.256;2023-10-31T00:55:40;11.60;99.90
8643;DHT22;4359;49.358;11.256;2023-10-31T00:58:06;11.60;99.90
8643;DHT22;4359;49.358;11.256;2023-10-31T01:00:32;11.50;99.90
8643;DHT22;4359;49.358;11.256;2023-10-31T01:02:59;11.50;99.90
8643;DHT22;4359;49.358;11.256;2023-10-31T01:05:25;11.50;99.90
8643;DHT22;4359;49.358;11.256;2023-10-31T01:07:52;11.60;99.90
8643;DHT22;4359;49.358;11.256;2023-10-31T01:10:17;11.60;99.90
8643;DHT22;4359;49.358;11.256;2023-10-31T01:12:43;11.60;99.90
8643;DHT22;4359;49.358;11.256;2023-10-31T01:15:09;11.50;99.90
8643;DHT22;4359;49.358;11.256;2023-10-31T01:17:34;11.50;99.90
8643;DHT22;4359;49.358;11.256;2023-10-31T01:20:00;11.50;99.90
8643;DHT22;4359;49.358;11.256;2023-10-31T01:22:26;11.50;99.90
8643;DHT22;4359;49.358;11.256;2023-10-31T01:24:51;11.50;99.90
8643;DHT22;4359;49.358;11.256;2023-10-31T01:27:17;11.50;99.90
8643;DHT22;4359;49.358;11.256;2023-10-31T01:29:43;11.40;99.90
8643;DHT22;4359;49.358;11.256;2023-10-31T01:32:08;11.50;99.90
8643;DHT22;4359;49.358;11.256;2023-10-31T01:34:34;11.50;99.90
8643;DHT22;4359;49.358;11.256;2023-10-31T01:37:00;11.50;99.90
8643;DHT22;4359;49.358;11.256;2023-10-31T01:39:25;11.50;99.90
8643;DHT22;4359;49.358;11.256;2023-10-31T01:41:51;11.40;99.90
8643;DHT22;4359;49.358;11.256;2023-10-31T01:44:18;11.40;99.90
8643;DHT22;4359;49.358;11.256;2023-10-31T01:46:43;11.40;99.90
8643;DHT22;4359;49.358;11.256;2023-10-31T01:49:09;11.50;99.90
8643;DHT22;4359;49.358;11.256;2023-10-31T01:51:35;11.50;99.90
8643;DHT22;4359;49.358;11.256;2023-10-31T01:54:00;11.40;99.90
8643;DHT22;4359;49.358;11.256;2023-10-31T01:56:26;11.30;99.90
8643;DHT22;4359;49.358;11.256;2023-10-31T01:58:52;11.30;99.90
8643;DHT22;4359;49.358;11.256;2023-10-31T02:01:19;11.40;99.90
8643;DHT22;4359;49.358;11.256;2023-10-31T02:03:45;11.40;99.90
8643;DHT22;4359;49.358;11.256;2023-10-31T02:06:10;11.40;99.90
8643;DHT22;4359;49.358;11.256;2023-10-31T02:08:36;11.40;99.90
8643;DHT22;4359;49.358;11.256;2023-10-31T02:11:02;11.40;99.90
8643;DHT22;4359;49.358;11.256;2023-10-31T02:13:29;11.40;99.90
8643;DHT22;4359;49.358;11.256;2023-10-31T02:15:55;11.40;99.90
8643;DHT22;4359;49.358;11.256;2023-10-31T02:18:20;11.40;99.90
8643;DHT22;4359;49.358;11.256;2023-10-31T02:20:46;11.40;99.90
8643;DHT22;4359;49.358;11.256;2023-10-31T02:23:12;11.40;99.90
8643;DHT22;4359;49.358;11.256;2023-10-31T02:25:37;11.30;99.90
8643;DHT22;4359;49.358;11.256;2023-10-31T02:28:03;11.30;99.90
8643;DHT22;4359;49.358;11.256;2023-10-31T02:30:29;11.20;99.90
8643;DHT22;4359;49.358;11.256;2023-10-31T02:32:54;11.20;99.90
8643;DHT22;4359;49.358;11.256;2023-10-31T02:35:21;11.20;99.90
8643;DHT22;4359;49.358;11.256;2023-10-31T02:37:47;11.10;99.90
8643;DHT22;4359;49.358;11.256;2023-10-31T02:40:13;10.90;99.90
8643;DHT22;4359;49.358;11.256;2023-10-31T02:42:39;10.80;99.90
8643;DHT22;4359;49.358;11.256;2023-10-31T02:45:05;10.70;99.90
8643;DHT22;4359;49.358;11.256;2023-10-31T02:47:31;10.70;99.90
8643;DHT22;4359;49.358;11.256;2023-10-31T02:49:56;10.70;99.90
8643;DHT22;4359;49.358;11.256;2023-10-31T02:52:22;10.60;99.90
8643;DHT22;4359;49.358;11.256;2023-10-31T02:54:48;10.60;99.90
8643;DHT22;4359;49.358;11.256;2023-10-31T02:57:15;10.50;99.90
8643;DHT22;4359;49.358;11.256;2023-10-31T02:59:41;10.40;99.90
8643;DHT22;4359;49.358;11.256;2023-10-31T03:02:06;10.40;99.90
8643;DHT22;4359;49.358;11.256;2023-10-31T03:04:32;10.30;99.90
8643;DHT22;4359;49.358;11.256;2023-10-31T03:06:58;10.30;99.90
8643;DHT22;4359;49.358;11.256;2023-10-31T03:09:24;10.30;99.90
8643;DHT22;4359;49.358;11.256;2023-10-31T03:11:49;10.30;99.90
8643;DHT22;4359;49.358;11.256;2023-10-31T03:14:15;10.30;99.90
8643;DHT22;4359;49.358;11.256;2023-10-31T03:16:41;10.30;99.90
8643;DHT22;4359;49.358;11.256;2023-10-31T03:19:07;10.30;99.90
8643;DHT22;4359;49.358;11.256;2023-10-31T03:21:33;10.30;99.90
8643;DHT22;4359;49.358;11.256;2023-10-31T03:23:59;10.20;99.90
8643;DHT22;4359;49.358;11.256;2023-10-31T03:26:24;10.20;99.90
8643;DHT22;4359;49.358;11.256;2023-10-31T03:28:50;10.20;99.90
8643;DHT22;4359;49.358;11.256;2023-10-31T03:31:16;10.10;99.90
8643;DHT22;4359;49.358;11.256;2023-10-31T03:33:42;10.10;99.90
8643;DHT22;4359;49.358;11.256;2023-10-31T03:36:08;10.10;99.90
8643;DHT22;4359;49.358;11.256;2023-10-31T03:38:35;10.10;99.90
8643;DHT22;4359;49.358;11.256;2023-10-31T03:41:01;10.20;99.90
8643;DHT22;4359;49.358;11.256;2023-10-31T03:43:27;10.10;99.90
8643;DHT22;4359;49.358;11.256;2023-10-31T03:45:53;10.00;99.90
8643;DHT22;4359;49.358;11.256;2023-10-31T03:48:19;10.00;99.90
8643;DHT22;4359;49.358;11.256;2023-10-31T03:50:45;10.00;99.90
8643;DHT22;4359;49.358;11.256;2023-10-31T03:53:10;10.00;99.90
8643;DHT22;4359;49.358;11.256;2023-10-31T03:55:36;10.00;99.90
8643;DHT22;4359;49.358;11.256;2023-10-31T03:58:02;10.00;99.90
8643;DHT22;4359;49.358;11.256;2023-10-31T04:00:27;10.00;99.90
8643;DHT22;4359;49.358;11.256;2023-10-31T04:02:53;9.90;99.90
8643;DHT22;4359;49.358;11.256;2023-10-31T04:05:19;9.90;99.90
8643;DHT22;4359;49.358;11.256;2023-10-31T04:07:47;9.90;99.90
8643;DHT22;4359;49.358;11.256;2023-10-31T04:10:13;9.80;99.90
8643;DHT22;4359;49.358;11.256;2023-10-31T04:12:39;9.80;99.90
8643;DHT22;4359;49.358;11.256;2023-10-31T04:15:05;9.70;99.90
8643;DHT22;4359;49.358;11.256;2023-10-31T04:17:31;9.70;99.90
8643;DHT22;4359;49.358;11.256;2023-10-31T04:19:57;9.60;99.90
8643;DHT22;4359;49.358;11.256;2023-10-31T04:22:22;9.60;99.90
8643;DHT22;4359;49.358;11.256;2023-10-31T04:24:48;9.60;99.90
8643;DHT22;4359;49.358;11.256;2023-10-31T04:27:13;9.60;99.90
8643;DHT22;4359;49.358;11.256;2023-10-31T04:29:39;9.60;99.90
8643;DHT22;4359;49.358;11.256;2023-10-31T04:32:05;9.50;99.90
8643;DHT22;4359;49.358;11.256;2023-10-31T04:34:31;9.50;99.90
8643;DHT22;4359;49.358;11.256;2023-10-31T04:36:57;9.40;99.90
8643;DHT22;4359;49.358;11.256;2023-10-31T04:39:23;9.40;99.90
8643;DHT22;4359;49.358;11.256;2023-10-31T04:41:49;9.30;99.90
8643;DHT22;4359;49.358;11.256;2023-10-31T04:44:14;9.30;99.90
8643;DHT22;4359;49.358;11.256;2023-10-31T04:46:40;9.30;99.90
8643;DHT22;4359;49.358;11.256;2023-10-31T04:49:06;9.20;99.90
8643;DHT22;4359;49.358;11.256;2023-10-31T04:51:35;9.20;99.90
8643;DHT22;4359;49.358;11.256;2023-10-31T04:54:01;9.10;99.90
8643;DHT22;4359;49.358;11.256;2023-10-31T04:56:27;9.00;99.90
8643;DHT22;4359;49.358;11.256;2023-10-31T04:58:52;8.90;99.90
8643;DHT22;4359;49.358;11.256;2023-10-31T05:01:18;9.00;99.90
8643;DHT22;4359;49.358;11.256;2023-10-31T05:03:44;8.90;99.90
8643;DHT22;4359;49.358;11.256;2023-10-31T05:06:10;8.90;99.90
8643;DHT22;4359;49.358;11.256;2023-10-31T05:08:36;8.80;99.90
8643;DHT22;4359;49.358;11.256;2023-10-31T05:11:02;8.80;99.90
8643;DHT22;4359;49.358;11.256;2023-10-31T05:13:27;8.80;99.90
8643;DHT22;4359;49.358;11.256;2023-10-31T05:15:53;8.80;99.90
8643;DHT22;4359;49.358;11.256;2023-10-31T05:18:19;8.70;99.90
8643;DHT22;4359;49.358;11.256;2023-10-31T05:20:45;8.70;99.90
8643;DHT22;4359;49.358;11.256;2023-10-31T05:23:10;8.70;99.90
8643;DHT22;4359;49.358;11.256;2023-10-31T05:25:37;8.70;99.90
8643;DHT22;4359;49.358;11.256;2023-10-31T05:28:03;8.80;99.90
8643;DHT22;4359;49.358;11.256;2023-10-31T05:30:29;8.80;99.90
8643;DHT22;4359;49.358;11.256;2023-10-31T05:32:55;8.80;99.90
8643;DHT22;4359;49.358;11.256;2023-10-31T05:35:21;8.90;99.90
8643;DHT22;4359;49.358;11.256;2023-10-31T05:37:47;8.80;99.90
8643;DHT22;4359;49.358;11.256;2023-10-31T05:40:14;8.90;99.90
8643;DHT22;4359;49.358;11.256;2023-10-31T05:42:40;8.80;99.90
8643;DHT22;4359;49.358;11.256;2023-10-31T05:45:06;8.80;99.90
8643;DHT22;4359;49.358;11.256;2023-10-31T05:47:32;8.70;99.90
8643;DHT22;4359;49.358;11.256;2023-10-31T05:50:01;8.70;99.90
8643;DHT22;4359;49.358;11.256;2023-10-31T05:52:29;8.80;99.90
8643;DHT22;4359;49.358;11.256;2023-10-31T05:54:55;8.80;99.90
8643;DHT22;4359;49.358;11.256;2023-10-31T05:57:21;8.70;99.90
8643;DHT22;4359;49.358;11.256;2023-10-31T05:59:47;8.60;99.90
8643;DHT22;4359;49.358;11.256;2023-10-31T06:02:13;8.70;99.90
8643;DHT22;4359;49.358;11.256;2023-10-31T06:04:39;8.60;99.90
8643;DHT22;4359;49.358;11.256;2023-10-31T06:07:05;8.50;99.90
8643;DHT22;4359;49.358;11.256;2023-10-31T06:09:31;8.60;99.90
8643;DHT22;4359;49.358;11.256;2023-10-31T06:11:58;8.60;99.90
8643;DHT22;4359;49.358;11.256;2023-10-31T06:14:24;8.60;99.90
8643;DHT22;4359;49.358;11.256;2023-10-31T06:16:51;8.60;99.90
8643;DHT22;4359;49.358;11.256;2023-10-31T06:19:16;8.60;99.90
8643;DHT22;4359;49.358;11.256;2023-10-31T06:21:42;8.60;99.90
8643;DHT22;4359;49.358;11.256;2023-10-31T06:24:08;8.60;99.90
8643;DHT22;4359;49.358;11.256;2023-10-31T06:26:34;8.60;99.90
8643;DHT22;4359;49.358;11.256;2023-10-31T06:28:59;8.60;99.90
8643;DHT22;4359;49.358;11.256;2023-10-31T06:31:25;8.60;99.90
8643;DHT22;4359;49.358;11.256;2023-10-31T06:33:51;8.60;99.90
8643;DHT22;4359;49.358;11.256;2023-10-31T06:36:16;8.70;99.90
8643;DHT22;4359;49.358;11.256;2023-10-31T06:38:42;8.60;99.90
8643;DHT22;4359;49.358;11.256;2023-10-31T06:41:08;8.70;99.90
8643;DHT22;4359;49.358;11.256;2023-10-31T06:43:33;8.70;99.90
8643;DHT22;4359;49.358;11.256;2023-10-31T06:46:00;8.70;99.90
8643;DHT22;4359;49.358;11.256;2023-10-31T06:48:29;8.70;99.90
8643;DHT22;4359;49.358;11.256;2023-10-31T06:50:55;8.70;99.90
8643;DHT22;4359;49.358;11.256;2023-10-31T06:53:21;8.90;99.90
8643;DHT22;4359;49.358;11.256;2023-10-31T06:55:46;8.90;99.90
8643;DHT22;4359;49.358;11.256;2023-10-31T06:58:12;8.90;99.90
8643;DHT22;4359;49.358;11.256;2023-10-31T07:00:38;9.10;99.90
8643;DHT22;4359;49.358;11.256;2023-10-31T07:03:04;9.10;99.90
8643;DHT22;4359;49.358;11.256;2023-10-31T07:05:34;9.20;99.90
8643;DHT22;4359;49.358;11.256;2023-10-31T07:08:00;9.30;99.90
8643;DHT22;4359;49.358;11.256;2023-10-31T07:10:26;9.40;99.90
8643;DHT22;4359;49.358;11.256;2023-10-31T07:12:51;9.50;99.90
8643;DHT22;4359;49.358;11.256;2023-10-31T07:15:17;9.50;99.90
8643;DHT22;4359;49.358;11.256;2023-10-31T07:17:43;9.50;99.90
8643;DHT22;4359;49.358;11.256;2023-10-31T07:20:08;9.50;99.90
8643;DHT22;4359;49.358;11.256;2023-10-31T07:22:34;9.40;99.90
8643;DHT22;4359;49.358;11.256;2023-10-31T07:25:00;9.40;99.90
8643;DHT22;4359;49.358;11.256;2023-10-31T07:27:29;9.40;99.90
8643;DHT22;4359;49.358;11.256;2023-10-31T07:29:54;9.40;99.90
8643;DHT22;4359;49.358;11.256;2023-10-31T07:32:20;9.40;99.90
8643;DHT22;4359;49.358;11.256;2023-10-31T07:34:46;9.40;99.90
8643;DHT22;4359;49.358;11.256;2023-10-31T07:37:11;9.40;99.90
8643;DHT22;4359;49.358;11.256;2023-10-31T07:39:37;9.30;99.90
8643;DHT22;4359;49.358;11.256;2023-10-31T07:42:03;9.40;99.90
8643;DHT22;4359;49.358;11.256;2023-10-31T07:44:28;9.30;99.90
8643;DHT22;4359;49.358;11.256;2023-10-31T07:46:54;9.40;99.90
8643;DHT22;4359;49.358;11.256;2023-10-31T07:49:20;9.40;99.90
8643;DHT22;4359;49.358;11.256;2023-10-31T07:51:45;9.40;99.90
8643;DHT22;4359;49.358;11.256;2023-10-31T07:54:13;9.50;99.90
8643;DHT22;4359;49.358;11.256;2023-10-31T07:56:40;9.50;99.90
8643;DHT22;4359;49.358;11.256;2023-10-31T07:59:06;9.50;99.90
8643;DHT22;4359;49.358;11.256;2023-10-31T08:01:33;9.50;99.90
8643;DHT22;4359;49.358;11.256;2023-10-31T08:03:59;9.50;99.90
8643;DHT22;4359;49.358;11.256;2023-10-31T08:06:24;9.50;99.90
8643;DHT22;4359;49.358;11.256;2023-10-31T08:08:50;9.50;99.90
8643;DHT22;4359;49.358;11.256;2023-10-31T08:11:16;9.40;99.90
8643;DHT22;4359;49.358;11.256;2023-10-31T08:13:42;9.30;99.90
8643;DHT22;4359;49.358;11.256;2023-10-31T08:16:08;9.50;99.90
8643;DHT22;4359;49.358;11.256;2023-10-31T08:18:34;9.50;99.90
8643;DHT22;4359;49.358;11.256;2023-10-31T08:21:00;9.60;99.90
8643;DHT22;4359;49.358;11.256;2023-10-31T08:23:27;9.70;99.90
8643;DHT22;4359;49.358;11.256;2023-10-31T08:25:53;9.80;99.90
8643;DHT22;4359;49.358;11.256;2023-10-31T08:28:19;9.90;99.90
8643;DHT22;4359;49.358;11.256;2023-10-31T08:30:45;10.10;99.90
8643;DHT22;4359;49.358;11.256;2023-10-31T08:33:11;10.00;99.90
8643;DHT22;4359;49.358;11.256;2023-10-31T08:35:37;10.20;99.90
8643;DHT22;4359;49.358;11.256;2023-10-31T08:38:03;10.20;99.90
8643;DHT22;4359;49.358;11.256;2023-10-31T08:40:28;10.20;99.90
8643;DHT22;4359;49.358;11.256;2023-10-31T08:42:54;10.30;99.90
8643;DHT22;4359;49.358;11.256;2023-10-31T08:45:21;10.30;99.90
8643;DHT22;4359;49.358;11.256;2023-10-31T08:47:47;10.20;99.90
8643;DHT22;4359;49.358;11.256;2023-10-31T08:50:12;10.40;99.90
8643;DHT22;4359;49.358;11.256;2023-10-31T08:52:39;10.50;99.90
8643;DHT22;4359;49.358;11.256;2023-10-31T08:55:05;10.40;99.90
8643;DHT22;4359;49.358;11.256;2023-10-31T08:57:31;10.50;99.90
8643;DHT22;4359;49.358;11.256;2023-10-31T08:59:59;10.50;99.90
8643;DHT22;4359;49.358;11.256;2023-10-31T09:02:25;10.50;99.90
8643;DHT22;4359;49.358;11.256;2023-10-31T09:04:50;10.50;99.90
8643;DHT22;4359;49.358;11.256;2023-10-31T09:07:16;10.50;99.90
8643;DHT22;4359;49.358;11.256;2023-10-31T09:09:42;10.60;99.90
8643;DHT22;4359;49.358;11.256;2023-10-31T09:12:07;10.60;99.90
8643;DHT22;4359;49.358;11.256;2023-10-31T09:14:33;10.80;99.90
8643;DHT22;4359;49.358;11.256;2023-10-31T09:17:00;10.90;99.90
8643;DHT22;4359;49.358;11.256;2023-10-31T09:19:25;11.10;99.90
8643;DHT22;4359;49.358;11.256;2023-10-31T09:21:51;11.10;99.90
8643;DHT22;4359;49.358;11.256;2023-10-31T09:24:16;11.20;99.90
8643;DHT22;4359;49.358;11.256;2023-10-31T09:26:42;11.10;99.90
8643;DHT22;4359;49.358;11.256;2023-10-31T09:29:11;11.10;99.90
8643;DHT22;4359;49.358;11.256;2023-10-31T09:31:37;10.90;99.90
8643;DHT22;4359;49.358;11.256;2023-10-31T09:34:02;10.70;99.90
8643;DHT22;4359;49.358;11.256;2023-10-31T09:36:33;10.50;99.90
8643;DHT22;4359;49.358;11.256;2023-10-31T09:39:00;10.30;99.90
8643;DHT22;4359;49.358;11.256;2023-10-31T09:41:25;10.00;99.90
8643;DHT22;4359;49.358;11.256;2023-10-31T09:43:51;9.90;99.90
8643;DHT22;4359;49.358;11.256;2023-10-31T09:46:18;9.80;99.90
8643;DHT22;4359;49.358;11.256;2023-10-31T09:48:44;9.50;99.90
8643;DHT22;4359;49.358;11.256;2023-10-31T09:51:10;9.50;99.90
8643;DHT22;4359;49.358;11.256;2023-10-31T09:53:38;9.50;99.90
8643;DHT22;4359;49.358;11.256;2023-10-31T09:56:07;9.40;99.90
8643;DHT22;4359;49.358;11.256;2023-10-31T09:58:33;9.40;99.90
8643;DHT22;4359;49.358;11.256;2023-10-31T10:01:00;9.40;99.90
8643;DHT22;4359;49.358;11.256;2023-10-31T10:03:26;9.50;99.90
8643;DHT22;4359;49.358;11.256;2023-10-31T10:05:52;9.70;99.90
8643;DHT22;4359;49.358;11.256;2023-10-31T10:08:19;9.90;99.90
8643;DHT22;4359;49.358;11.256;2023-10-31T10:10:45;10.10;99.90
8643;DHT22;4359;49.358;11.256;2023-10-31T10:13:12;10.30;99.90
8643;DHT22;4359;49.358;11.256;2023-10-31T10:15:48;10.50;99.90
8643;DHT22;4359;49.358;11.256;2023-10-31T10:18:32;10.50;99.90
8643;DHT22;4359;49.358;11.256;2023-10-31T10:21:00;10.70;99.90
8643;DHT22;4359;49.358;11.256;2023-10-31T10:23:27;10.80;99.90
8643;DHT22;4359;49.358;11.256;2023-10-31T10:25:54;10.90;99.90
8643;DHT22;4359;49.358;11.256;2023-10-31T10:28:20;10.80;99.90
8643;DHT22;4359;49.358;11.256;2023-10-31T10:30:49;10.90;99.90
8643;DHT22;4359;49.358;11.256;2023-10-31T10:33:15;11.00;99.90
8643;DHT22;4359;49.358;11.256;2023-10-31T10:35:42;11.10;99.90
8643;DHT22;4359;49.358;11.256;2023-10-31T10:38:13;11.10;99.90
8643;DHT22;4359;49.358;11.256;2023-10-31T10:40:47;11.00;99.90
8643;DHT22;4359;49.358;11.256;2023-10-31T10:43:24;11.00;99.90
8643;DHT22;4359;49.358;11.256;2023-10-31T10:45:59;11.00;99.90
8643;DHT22;4359;49.358;11.256;2023-10-31T10:48:26;10.90;99.90
8643;DHT22;4359;49.358;11.256;2023-10-31T10:51:18;10.80;99.90
8643;DHT22;4359;49.358;11.256;2023-10-31T10:53:55;10.60;99.90
8643;DHT22;4359;49.358;11.256;2023-10-31T10:56:30;10.60;99.90
8643;DHT22;4359;49.358;11.256;2023-10-31T10:59:06;10.70;99.90
8643;DHT22;4359;49.358;11.256;2023-10-31T11:01:33;10.80;99.90
8643;DHT22;4359;49.358;11.256;2023-10-31T11:04:01;11.00;99.90
8643;DHT22;4359;49.358;11.256;2023-10-31T11:06:29;11.20;99.90
8643;DHT22;4359;49.358;11.256;2023-10-31T11:08:55;11.30;99.90
8643;DHT22;4359;49.358;11.256;2023-10-31T11:11:21;11.30;99.90
8643;DHT22;4359;49.358;11.256;2023-10-31T11:13:49;11.50;99.90
8643;DHT22;4359;49.358;11.256;2023-10-31T11:18:57;11.60;99.90
8643;DHT22;4359;49.358;11.256;2023-10-31T11:21:23;11.60;99.90
8643;DHT22;4359;49.358;11.256;2023-10-31T11:23:59;11.50;99.90
8643;DHT22;4359;49.358;11.256;2023-10-31T11:26:30;11.50;99.90
8643;DHT22;4359;49.358;11.256;2023-10-31T11:29:05;11.60;99.90
8643;DHT22;4359;49.358;11.256;2023-10-31T11:31:32;11.70;99.90
8643;DHT22;4359;49.358;11.256;2023-10-31T11:34:03;11.90;99.90
8643;DHT22;4359;49.358;11.256;2023-10-31T11:36:32;12.00;99.90
8643;DHT22;4359;49.358;11.256;2023-10-31T11:41:38;11.80;99.90
8643;DHT22;4359;49.358;11.256;2023-10-31T11:44:04;11.70;99.90
8643;DHT22;4359;49.358;11.256;2023-10-31T11:46:30;11.60;99.90
8643;DHT22;4359;49.358;11.256;2023-10-31T11:48:56;11.80;99.90
8643;DHT22;4359;49.358;11.256;2023-10-31T11:51:22;11.90;99.90
8643;DHT22;4359;49.358;11.256;2023-10-31T11:53:51;11.70;99.90
8643;DHT22;4359;49.358;11.256;2023-10-31T11:56:17;11.60;99.90
8643;DHT22;4359;49.358;11.256;2023-10-31T11:58:43;11.40;99.90
8643;DHT22;4359;49.358;11.256;2023-10-31T12:01:10;11.10;99.90
8643;DHT22;4359;49.358;11.256;2023-10-31T12:03:43;11.00;99.90
8643;DHT22;4359;49.358;11.256;2023-10-31T12:06:13;11.00;99.90
8643;DHT22;4359;49.358;11.256;2023-10-31T12:08:43;10.90;99.90
8643;DHT22;4359;49.358;11.256;2023-10-31T12:11:13;11.00;99.90
8643;DHT22;4359;49.358;11.256;2023-10-31T12:13:51;11.10;99.90
8643;DHT22;4359;49.358;11.256;2023-10-31T12:16:17;11.20;99.90
8643;DHT22;4359;49.358;11.256;2023-10-31T12:18:43;11.10;99.90
8643;DHT22;4359;49.358;11.256;2023-10-31T12:21:09;11.10;99.90
8643;DHT22;4359;49.358;11.256;2023-10-31T12:23:37;11.20;99.90
8643;DHT22;4359;49.358;11.256;2023-10-31T12:26:03;11.30;99.90
8643;DHT22;4359;49.358;11.256;2023-10-31T12:28:29;11.10;99.90
8643;DHT22;4359;49.358;11.256;2023-10-31T12:30:55;11.20;99.90
8643;DHT22;4359;49.358;11.256;2023-10-31T12:33:24;11.20;99.90
8643;DHT22;4359;49.358;11.256;2023-10-31T12:35:52;11.00;99.90
8643;DHT22;4359;49.358;11.256;2023-10-31T12:38:21;11.00;99.90
8643;DHT22;4359;49.358;11.256;2023-10-31T12:40:48;11.10;99.90
8643;DHT22;4359;49.358;11.256;2023-10-31T12:43:15;11.20;99.90
8643;DHT22;4359;49.358;11.256;2023-10-31T12:45:41;11.20;99.90
8643;DHT22;4359;49.358;11.256;2023-10-31T12:48:08;11.40;99.90
8643;DHT22;4359;49.358;11.256;2023-10-31T12:50:36;11.50;99.90
8643;DHT22;4359;49.358;11.256;2023-10-31T12:53:08;11.60;99.90
8643;DHT22;4359;49.358;11.256;2023-10-31T12:55:42;11.50;99.90
8643;DHT22;4359;49.358;11.256;2023-10-31T12:58:08;11.50;99.90
8643;DHT22;4359;49.358;11.256;2023-10-31T13:00:36;11.50;99.90
8643;DHT22;4359;49.358;11.256;2023-10-31T13:03:08;11.60;99.90
8643;DHT22;4359;49.358;11.256;2023-10-31T13:05:34;11.70;99.90
8643;DHT22;4359;49.358;11.256;2023-10-31T13:08:00;11.80;99.90
8643;DHT22;4359;49.358;11.256;2023-10-31T13:10:29;12.10;99.90
8643;DHT22;4359;49.358;11.256;2023-10-31T13:12:55;12.10;99.90
8643;DHT22;4359;49.358;11.256;2023-10-31T13:15:22;12.10;99.90
8643;DHT22;4359;49.358;11.256;2023-10-31T13:17:52;12.10;99.90
8643;DHT22;4359;49.358;11.256;2023-10-31T13:20:19;12.20;99.90
8643;DHT22;4359;49.358;11.256;2023-10-31T13:22:45;12.30;99.90
8643;DHT22;4359;49.358;11.256;2023-10-31T13:25:12;12.30;99.90
8643;DHT22;4359;49.358;11.256;2023-10-31T13:27:45;12.50;99.90
8643;DHT22;4359;49.358;11.256;2023-10-31T13:30:16;12.30;99.90
8643;DHT22;4359;49.358;11.256;2023-10-31T13:32:43;12.10;99.90
8643;DHT22;4359;49.358;11.256;2023-10-31T13:35:09;12.30;99.90
8643;DHT22;4359;49.358;11.256;2023-10-31T13:37:36;12.20;99.90
8643;DHT22;4359;49.358;11.256;2023-10-31T13:40:02;12.10;99.90
8643;DHT22;4359;49.358;11.256;2023-10-31T13:42:28;12.20;99.90
8643;DHT22;4359;49.358;11.256;2023-10-31T13:44:54;12.30;99.90
8643;DHT22;4359;49.358;11.256;2023-10-31T13:47:21;12.40;99.90
8643;DHT22;4359;49.358;11.256;2023-10-31T13:49:47;12.50;99.90
8643;DHT22;4359;49.358;11.256;2023-10-31T13:52:14;12.70;99.90
8643;DHT22;4359;49.358;11.256;2023-10-31T13:54:39;12.80;99.90
8643;DHT22;4359;49.358;11.256;2023-10-31T13:57:05;12.60;99.90
8643;DHT22;4359;49.358;11.256;2023-10-31T13:59:30;12.40;99.90
8643;DHT22;4359;49.358;11.256;2023-10-31T14:01:57;12.30;99.90
8643;DHT22;4359;49.358;11.256;2023-10-31T14:04:22;12.30;99.90
8643;DHT22;4359;49.358;11.256;2023-10-31T14:06:48;12.30;99.90
8643;DHT22;4359;49.358;11.256;2023-10-31T14:09:14;12.40;99.90
8643;DHT22;4359;49.358;11.256;2023-10-31T14:11:41;12.30;99.90
8643;DHT22;4359;49.358;11.256;2023-10-31T14:14:07;12.40;99.90
8643;DHT22;4359;49.358;11.256;2023-10-31T14:16:38;12.30;99.90
8643;DHT22;4359;49.358;11.256;2023-10-31T14:19:05;12.30;99.90
8643;DHT22;4359;49.358;11.256;2023-10-31T14:21:32;12.40;99.90
8643;DHT22;4359;49.358;11.256;2023-10-31T14:23:59;12.40;99.90
8643;DHT22;4359;49.358;11.256;2023-10-31T14:26:26;12.40;99.90
8643;DHT22;4359;49.358;11.256;2023-10-31T14:28:51;12.40;99.90
8643;DHT22;4359;49.358;11.256;2023-10-31T14:31:17;12.30;99.90
8643;DHT22;4359;49.358;11.256;2023-10-31T14:33:43;12.20;99.90
8643;DHT22;4359;49.358;11.256;2023-10-31T14:36:10;12.00;99.90
8643;DHT22;4359;49.358;11.256;2023-10-31T14:38:38;11.90;99.90
8643;DHT22;4359;49.358;11.256;2023-10-31T14:41:05;12.00;99.90
8643;DHT22;4359;49.358;11.256;2023-10-31T14:43:31;12.00;99.90
8643;DHT22;4359;49.358;11.256;2023-10-31T14:45:57;11.90;99.90
8643;DHT22;4359;49.358;11.256;2023-10-31T14:48:23;11.80;99.90
8643;DHT22;4359;49.358;11.256;2023-10-31T14:50:49;11.70;99.90
8643;DHT22;4359;49.358;11.256;2023-10-31T14:53:16;11.70;99.90
8643;DHT22;4359;49.358;11.256;2023-10-31T14:55:41;11.70;99.90
8643;DHT22;4359;49.358;11.256;2023-10-31T14:58:07;11.60;99.90
8643;DHT22;4359;49.358;11.256;2023-10-31T15:00:36;11.60;99.90
8643;DHT22;4359;49.358;11.256;2023-10-31T15:03:03;11.60;99.90
8643;DHT22;4359;49.358;11.256;2023-10-31T15:05:29;11.50;99.90
8643;DHT22;4359;49.358;11.256;2023-10-31T15:07:56;11.50;99.90
8643;DHT22;4359;49.358;11.256;2023-10-31T15:10:23;11.40;99.90
8643;DHT22;4359;49.358;11.256;2023-10-31T15:12:49;11.40;99.90
8643;DHT22;4359;49.358;11.256;2023-10-31T15:15:15;11.40;99.90
8643;DHT22;4359;49.358;11.256;2023-10-31T15:17:41;11.20;99.90
8643;DHT22;4359;49.358;11.256;2023-10-31T15:20:07;11.00;99.90
8643;DHT22;4359;49.358;11.256;2023-10-31T15:22:39;10.90;99.90
8643;DHT22;4359;49.358;11.256;2023-10-31T15:25:05;10.70;99.90
8643;DHT22;4359;49.358;11.256;2023-10-31T15:27:31;10.70;99.90
8643;DHT22;4359;49.358;11.256;2023-10-31T15:29:57;10.70;99.90
8643;DHT22;4359;49.358;11.256;2023-10-31T15:32:22;10.60;99.90
8643;DHT22;4359;49.358;11.256;2023-10-31T15:34:48;10.60;99.90
8643;DHT22;4359;49.358;11.256;2023-10-31T15:37:14;10.50;99.90
8643;DHT22;4359;49.358;11.256;2023-10-31T15:39:40;10.30;99.90
8643;DHT22;4359;49.358;11.256;2023-10-31T15:42:06;10.20;99.90
8643;DHT22;4359;49.358;11.256;2023-10-31T15:44:32;10.00;99.90
8643;DHT22;4359;49.358;11.256;2023-10-31T15:46:58;9.90;99.90
8643;DHT22;4359;49.358;11.256;2023-10-31T15:49:23;9.70;99.90
8643;DHT22;4359;49.358;11.256;2023-10-31T15:51:49;9.70;99.90